Time;durP1;ratioP1;P1;durP2;ratioP2;P2;SDS_P1;SDS_P2;PMS_P1;PMS_P2;Temp;Humidity;BMP_temperature;BMP_pressure;BME280_temperature;BME280_humidity;BME280_pressure;Samples;Min_cycle;Max_cycle;Signal;HPM_P1;HPM_P2
2024/01/05 00:00:55;;;;;;;2.15;1.73;;;;;;;8.72;54.07;99239.72;4445984;32;20164;-72
2024/01/05 00:03:28;;;;;;;3.08;2.15;;;;;;;8.50;54.63;99235.12;4446168;32;20168;-72
2024/01/05 00:05:59;;;;;;;4.95;2.58;;;;;;;8.49;54.64;99241.38;4452391;32;20139;-72
2024/01/05 00:08:28;;;;;;;2.80;2.00;;;;;;;8.53;54.47;99235.75;4450554;32;20164;-72
2024/01/05 00:10:57;;;;;;;4.70;2.47;;;;;;;8.45;54.73;99251.31;4445755;32;20187;-72
2024/01/05 00:13:26;;;;;;;3.15;1.80;;;;;;;8.50;54.54;99256.25;4452149;32;20192;-72
2024/01/05 00:15:55;;;;;;;2.05;1.85;;;;;;;8.62;54.22;99248.28;4451889;32;20159;-72
2024/01/05 00:18:27;;;;;;;3.50;2.37;;;;;;;8.40;54.64;99261.34;4451885;32;20171;-72
2024/01/05 00:20:56;;;;;;;4.05;2.30;;;;;;;8.32;54.92;99263.66;4446109;32;20203;-72
2024/01/05 00:23:27;;;;;;;2.97;1.67;;;;;;;8.54;54.22;99271.75;4446019;32;20222;-72
2024/01/05 00:25:55;;;;;;;2.42;2.08;;;;;;;8.51;54.22;99268.50;4451908;32;20164;-72
2024/01/05 00:28:28;;;;;;;3.25;1.77;;;;;;;8.25;54.83;99268.50;4451877;32;20152;-72
2024/01/05 00:31:00;;;;;;;3.83;1.62;;;;;;;8.38;54.46;99271.16;4445550;32;20183;-72
2024/01/05 00:33:29;;;;;;;;;;;;;;;8.42;54.31;99279.72;4446476;32;20508;-72
2024/01/05 00:35:59;;;;;;;3.12;2.40;;;;;;;8.43;54.41;99273.47;4452334;32;20031;-72
2024/01/05 00:38:29;;;;;;;5.80;2.53;;;;;;;8.37;54.44;99275.59;4451775;32;20188;-72
2024/01/05 00:40:58;;;;;;;4.00;1.77;;;;;;;8.48;54.23;99280.12;4445403;32;20152;-72
2024/01/05 00:43:27;;;;;;;3.28;1.92;;;;;;;8.18;54.40;99280.44;4445724;32;20147;-72
2024/01/05 00:45:57;;;;;;;3.75;1.55;;;;;;;8.59;53.61;99293.44;4451676;32;20539;-72
2024/01/05 00:48:29;;;;;;;2.03;1.67;;;;;;;8.68;53.42;99288.44;4451515;32;20147;-72
2024/01/05 00:50:59;;;;;;;3.45;1.73;;;;;;;8.44;53.75;99291.03;4445672;32;20153;-72
2024/01/05 00:53:30;;;;;;;2.33;1.48;;;;;;;8.37;53.99;99298.50;4451662;32;20148;-72
2024/01/05 00:55:59;;;;;;;5.50;1.90;;;;;;;8.54;53.55;99292.03;4450248;32;20175;-72
2024/01/05 00:58:29;;;;;;;3.67;1.80;;;;;;;8.52;53.49;99297.44;4451624;32;20445;-72
2024/01/05 01:01:08;;;;;;;5.22;3.72;;;;;;;8.62;53.39;99294.97;4445030;32;20178;-72
2024/01/05 01:03:37;;;;;;;9.82;3.58;;;;;;;8.54;53.23;99298.16;4451543;32;20147;-72
2024/01/05 01:06:07;;;;;;;5.70;3.80;;;;;;;8.57;53.20;99294.47;4451958;32;20483;-72
2024/01/05 01:08:38;;;;;;;5.45;3.42;;;;;;;8.53;53.09;99283.28;4451629;32;20184;-72
2024/01/05 01:11:14;;;;;;;3.47;2.72;;;;;;;8.66;52.72;99285.06;4445209;32;20175;-72
2024/01/05 01:13:44;;;;;;;4.57;2.37;;;;;;;8.50;52.97;99295.84;4450314;32;20453;-72
2024/01/05 01:16:23;;;;;;;3.12;1.58;;;;;;;8.76;52.34;99280.81;4451517;32;20459;-72
2024/01/05 01:18:57;;;;;;;4.75;1.70;;;;;;;8.60;52.63;99286.34;4451451;32;20168;-72
2024/01/05 01:21:26;;;;;;;1.23;1.10;;;;;;;8.76;52.21;99280.81;4445174;32;20544;-72
2024/01/05 01:23:57;;;;;;;1.70;1.10;;;;;;;8.64;52.41;99284.34;4451847;32;20151;-72
2024/01/05 01:26:26;;;;;;;2.78;1.23;;;;;;;8.33;53.11;99291.72;4451484;32;20183;-72
2024/01/05 01:28:56;;;;;;;1.50;1.40;;;;;;;8.37;53.07;99294.06;4451545;32;20143;-72
2024/01/05 01:31:28;;;;;;;2.70;1.50;;;;;;;8.39;53.12;99291.31;4445151;32;20179;-72
2024/01/05 01:33:57;;;;;;;5.20;1.42;;;;;;;8.49;52.68;99288.88;4451365;32;20195;-72
2024/01/05 01:36:26;;;;;;;2.50;1.25;;;;;;;8.76;51.79;99286.09;4451287;32;20445;-71
2024/01/05 01:38:57;;;;;;;1.77;1.60;;;;;;;8.40;52.65;99294.81;4451746;32;20155;-72
2024/01/05 01:41:26;;;;;;;1.52;1.02;;;;;;;8.72;52.08;99301.31;4445109;32;20159;-72
2024/01/05 01:43:55;;;;;;;2.00;1.33;;;;;;;8.71;52.23;99301.41;4451354;32;20437;-72
2024/01/05 01:46:33;;;;;;;1.80;1.60;;;;;;;8.44;52.70;99299.78;4451376;32;20697;-72
2024/01/05 01:49:03;;;;;;;2.55;1.30;;;;;;;8.40;52.77;99294.81;4451278;32;20175;-72
2024/01/05 01:51:33;;;;;;;1.62;1.15;;;;;;;8.70;52.20;99290.00;4444872;32;20152;-72
2024/01/05 01:54:06;;;;;;;2.03;1.27;;;;;;;8.84;51.72;99279.31;4451894;32;20176;-72
2024/01/05 01:56:37;;;;;;;3.35;1.40;;;;;;;8.64;52.24;99281.69;4449857;32;20179;-72
2024/01/05 01:59:07;;;;;;;6.28;1.37;;;;;;;9.07;51.38;99261.78;4451295;32;20200;-72
2024/01/05 02:01:40;;;;;;;1.33;1.15;;;;;;;9.18;51.19;99250.41;4444845;32;20537;-72
2024/01/05 02:04:15;;;;;;;2.87;1.37;;;;;;;9.10;51.44;99252.78;4451189;32;20175;-72
2024/01/05 02:06:45;;;;;;;3.15;1.30;;;;;;;9.02;51.74;99247.22;4451199;32;20203;-72
2024/01/05 02:09:16;;;;;;;2.75;1.35;;;;;;;9.01;51.75;99238.44;4451576;32;20159;-72
2024/01/05 02:11:46;;;;;;;2.17;1.17;;;;;;;9.04;51.78;99247.94;4444922;32;20449;-72
2024/01/05 02:14:16;;;;;;;3.62;1.17;;;;;;;8.93;52.22;99243.44;4450408;32;20164;-72
2024/01/05 02:16:45;;;;;;;4.40;1.73;;;;;;;9.00;51.87;99249.13;4451047;32;20180;-72
2024/01/05 02:19:34;;;;;;;4.53;1.70;;;;;;;8.90;52.22;99243.66;4449679;32;20179;-72
2024/01/05 02:22:04;;;;;;;4.43;1.90;;;;;;;8.61;52.73;99240.50;4444882;32;20179;-72
2024/01/05 02:24:34;;;;;;;4.03;1.02;;;;;;;8.65;53.04;99238.47;4451084;32;20144;-72
2024/01/05 02:27:03;;;;;;;5.65;2.95;;;;;;;8.87;52.69;99243.91;4451597;32;20135;-72
2024/01/05 02:29:33;;;;;;;3.45;2.03;;;;;;;8.92;52.52;99238.28;4451027;32;20175;-72
2024/01/05 02:32:02;;;;;;;7.40;2.37;;;;;;;8.95;52.36;99248.59;4444553;32;20156;-72
2024/01/05 02:34:31;;;;;;;6.57;3.65;;;;;;;8.66;52.97;99242.78;4450926;32;20179;-72
2024/01/05 02:37:02;;;;;;;5.30;2.85;;;;;;;8.58;53.25;99246.81;4451006;32;20430;-72
2024/01/05 02:39:31;;;;;;;2.90;1.65;;;;;;;8.81;52.83;99249.62;4450944;32;20147;-72
2024/01/05 02:42:01;;;;;;;1.83;1.23;;;;;;;8.78;52.81;99255.13;4444998;32;20164;-72
2024/01/05 02:44:31;;;;;;;2.87;1.50;;;;;;;8.91;52.55;99252.41;4450831;32;20160;-72
2024/01/05 02:46:59;;;;;;;3.05;0.90;;;;;;;8.90;52.45;99253.37;4450785;32;20167;-72
2024/01/05 02:49:28;;;;;;;1.37;1.00;;;;;;;8.77;52.81;99253.44;4451064;32;20144;-72
2024/01/05 02:52:00;;;;;;;1.20;1.10;;;;;;;8.74;52.79;99266.84;4444450;32;20171;-72
2024/01/05 02:54:30;;;;;;;2.73;1.20;;;;;;;8.71;52.75;99264.44;4449486;32;20188;-72
2024/01/05 02:57:01;;;;;;;2.15;1.20;;;;;;;8.68;53.05;99256.75;4450901;32;20662;-72
2024/01/05 02:59:30;;;;;;;1.45;1.35;;;;;;;8.58;53.42;99265.31;4450693;32;20172;-72
2024/01/05 03:02:00;;;;;;;2.87;1.40;;;;;;;8.64;53.26;99261.41;4444186;32;20527;-72
2024/01/05 03:04:29;;;;;;;5.28;1.75;;;;;;;8.30;54.31;99276.09;4450844;32;20195;-72
2024/01/05 03:06:59;;;;;;;2.55;1.30;;;;;;;8.45;53.94;99276.87;4450505;32;20152;-72
2024/01/05 03:09:29;;;;;;;4.22;1.30;;;;;;;8.22;54.15;99283.72;4450573;32;20165;-72
2024/01/05 03:11:58;;;;;;;2.15;1.02;;;;;;;8.21;54.51;99287.31;4444617;32;20187;-72
2024/01/05 03:14:31;;;;;;;2.47;1.02;;;;;;;8.32;54.09;99276.84;4450616;32;20445;-72
2024/01/05 03:17:00;;;;;;;7.18;3.87;;;;;;;8.57;53.45;99273.34;4450307;32;20151;-72
2024/01/05 03:19:35;;;;;;;6.53;3.30;;;;;;;8.40;53.84;99268.44;4450687;32;20755;-72
2024/01/05 03:22:05;;;;;;;2.25;1.87;;;;;;;8.79;52.94;99267.38;4443821;32;20219;-72
2024/01/05 03:24:35;;;;;;;8.32;3.42;;;;;;;8.65;53.18;99262.25;4450273;32;20160;-72
2024/01/05 03:27:05;;;;;;;8.50;4.12;;;;;;;8.61;53.38;99262.47;4452294;32;20168;-72
2024/01/05 03:29:35;;;;;;;7.70;4.78;;;;;;;8.61;53.32;99249.25;4452297;32;20159;-72
2024/01/05 03:32:07;;;;;;;5.37;3.50;;;;;;;8.78;52.95;99249.84;4450957;32;20196;-72
2024/01/05 03:34:36;;;;;;;;;;;;;;;8.62;53.35;99253.56;4452634;32;20167;-72
2024/01/05 03:37:05;;;;;;;3.67;1.42;;;;;;;8.57;53.44;99260.16;4452092;32;20040;-72
2024/01/05 03:39:34;;;;;;;2.25;1.30;;;;;;;8.55;53.63;99260.28;4452219;32;20183;-72
2024/01/05 03:42:03;;;;;;;1.95;1.00;;;;;;;8.32;54.35;99276.84;4446304;32;20179;-72
2024/01/05 03:44:32;;;;;;;6.18;1.90;;;;;;;8.77;53.12;99269.28;4452083;32;20160;-72
2024/01/05 03:47:03;;;;;;;3.67;1.60;;;;;;;8.77;53.04;99274.56;4452117;32;20171;-72
2024/01/05 03:49:36;;;;;;;2.45;1.45;;;;;;;8.40;54.03;99290.38;4452171;32;20171;-72
2024/01/05 03:52:05;;;;;;;3.47;1.75;;;;;;;8.54;53.55;99284.13;4445955;32;20172;-72
2024/01/05 03:54:34;;;;;;;2.42;1.87;;;;;;;7.94;54.98;99288.25;4452080;32;20155;-72
2024/01/05 03:57:07;;;;;;;5.72;1.60;;;;;;;7.89;55.45;99285.09;4452391;32;20442;-72
2024/01/05 03:59:36;;;;;;;6.12;1.77;;;;;;;7.69;56.18;99277.69;4452095;32;20171;-72
2024/01/05 04:02:07;;;;;;;6.05;2.10;;;;;;;7.78;55.82;99280.53;4445593;32;20168;-72
2024/01/05 04:04:36;;;;;;;4.22;1.85;;;;;;;8.17;54.88;99286.66;4452034;32;20168;-72
2024/01/05 04:07:06;;;;;;;7.15;3.20;;;;;;;8.14;54.93;99295.62;4451898;32;20716;-72
2024/01/05 04:09:35;;;;;;;6.95;1.83;;;;;;;7.53;56.28;99312.97;4450759;32;20436;-72
2024/01/05 04:12:06;;;;;;;6.90;3.15;;;;;;;6.47;59.68;99321.50;4446134;32;20176;-72
2024/01/05 04:14:35;;;;;;;4.57;1.98;;;;;;;6.35;60.45;99332.78;4451921;32;20458;-72
2024/01/05 04:17:15;;;;;;;2.25;1.77;;;;;;;6.90;59.12;99330.19;4451951;32;20164;-72
2024/01/05 04:19:44;;;;;;;4.20;2.15;;;;;;;6.74;59.30;99333.91;4451849;32;20163;-72
2024/01/05 04:22:13;;;;;;;5.00;1.87;;;;;;;5.63;62.61;99331.78;4445522;32;20151;-72
2024/01/05 04:24:42;;;;;;;4.43;2.10;;;;;;;5.81;62.41;99329.84;4451808;32;20144;-72
2024/01/05 04:27:11;;;;;;;5.72;2.45;;;;;;;6.36;60.57;99334.47;4452199;32;20556;-72
2024/01/05 04:29:41;;;;;;;5.80;2.70;;;;;;;6.46;59.90;99332.13;4451880;32;20176;-72
2024/01/05 04:32:10;;;;;;;7.97;2.90;;;;;;;6.34;60.34;99331.09;4445550;32;20179;-72
2024/01/05 04:34:45;;;;;;;7.45;3.72;;;;;;;6.80;58.90;99326.44;4451832;32;20147;-72
2024/01/05 04:37:14;;;;;;;4.32;2.58;;;;;;;7.06;57.98;99329.22;4451313;32;20175;-72
2024/01/05 04:39:44;;;;;;;6.18;2.65;;;;;;;7.50;56.54;99334.25;4451722;32;20282;-72
2024/01/05 04:42:13;;;;;;;4.30;1.87;;;;;;;7.31;56.71;99345.16;4450604;32;20549;-72
2024/01/05 04:44:42;;;;;;;7.80;2.60;;;;;;;6.71;58.57;99348.09;4451677;32;20152;-73
2024/01/05 04:47:12;;;;;;;3.80;2.25;;;;;;;6.72;58.64;99336.63;4451668;32;20789;-72
2024/01/05 04:49:43;;;;;;;11.18;4.37;;;;;;;7.07;57.66;99341.44;4451609;32;20547;-72
2024/01/05 04:52:13;;;;;;;16.27;8.05;;;;;;;7.13;57.27;99334.00;4451774;32;20172;-72
2024/01/05 04:54:43;;;;;;;8.80;5.07;;;;;;;7.11;57.21;99335.88;4451632;32;20156;-72
2024/01/05 04:57:12;;;;;;;7.82;4.50;;;;;;;7.15;57.22;99341.81;4452059;32;20156;-72
2024/01/05 04:59:42;;;;;;;13.02;5.72;;;;;;;7.05;57.35;99348.62;4451587;32;20503;-72
2024/01/05 05:02:11;;;;;;;8.10;4.35;;;;;;;6.85;58.12;99349.84;4451535;32;20568;-72
2024/01/05 05:04:46;;;;;;;6.82;3.33;;;;;;;6.84;58.13;99346.37;4451735;32;20160;-72
2024/01/05 05:07:18;;;;;;;6.12;2.92;;;;;;;6.84;57.97;99343.75;4451645;32;20231;-72
2024/01/05 05:09:47;;;;;;;5.85;2.67;;;;;;;7.04;57.43;99345.13;4451717;32;20471;-72
2024/01/05 05:12:17;;;;;;;4.05;2.30;;;;;;;7.02;57.22;99340.91;4452013;32;20171;-72
2024/01/05 05:14:46;;;;;;;5.10;2.33;;;;;;;7.08;57.06;99351.03;4451498;32;20156;-72
2024/01/05 05:19:54;;;;;;;5.32;2.20;;;;;;;7.12;56.96;99358.66;4451442;32;20179;-72
2024/01/05 05:22:24;;;;;;;;;;;;;;;7.10;56.85;99354.44;4451866;32;20476;-72
2024/01/05 05:24:54;;;;;;;5.28;2.45;;;;;;;7.11;56.89;99349.06;4451398;32;20046;-72
2024/01/05 05:27:23;;;;;;;4.82;3.10;;;;;;;7.10;56.90;99354.44;4451791;32;20183;-72
2024/01/05 05:29:53;;;;;;;5.70;3.80;;;;;;;7.25;56.14;99355.25;4451355;32;20184;-72
2024/01/05 05:32:22;;;;;;;6.65;3.70;;;;;;;7.28;56.06;99357.66;4443499;32;20224;-72
2024/01/05 05:34:52;;;;;;;6.28;3.58;;;;;;;7.02;56.86;99360.19;4451374;32;20155;-72
2024/01/05 05:37:27;;;;;;;5.50;3.15;;;;;;;6.97;56.88;99364.91;4451721;32;20444;-72
2024/01/05 05:39:55;;;;;;;8.32;3.03;;;;;;;6.95;57.02;99371.22;4451246;32;20179;-72
2024/01/05 05:42:25;;;;;;;8.45;3.28;;;;;;;6.60;57.89;99366.34;4451545;32;20148;-72
2024/01/05 05:44:54;;;;;;;5.97;3.33;;;;;;;6.51;58.17;99370.38;4451719;32;20144;-72
2024/01/05 05:47:24;;;;;;;4.30;2.95;;;;;;;6.54;58.14;99372.00;4451112;32;20184;-72
2024/01/05 05:49:54;;;;;;;6.57;2.70;;;;;;;6.60;57.95;99374.22;4450703;32;20172;-72
2024/01/05 05:52:23;;;;;;;6.25;3.65;;;;;;;6.53;58.04;99367.66;4445008;32;20196;-72
2024/01/05 05:54:57;;;;;;;9.00;4.50;;;;;;;6.59;57.68;99378.66;4451374;32;20603;-72
2024/01/05 05:57:27;;;;;;;13.00;7.78;;;;;;;6.40;58.17;99383.34;4451240;32;20706;-71
2024/01/05 05:59:57;;;;;;;6.60;3.67;;;;;;;6.39;58.14;99382.50;4451735;32;20145;-72
2024/01/05 06:02:26;;;;;;;6.50;3.08;;;;;;;6.33;58.68;99400.44;4451203;32;20176;-72
2024/01/05 06:04:55;;;;;;;11.10;3.67;;;;;;;6.30;58.96;99400.63;4451231;32;20160;-72
2024/01/05 06:07:24;;;;;;;5.87;3.22;;;;;;;6.03;59.89;99396.06;4451416;32;20160;-72
2024/01/05 06:09:53;;;;;;;8.60;3.22;;;;;;;6.09;59.59;99397.47;4451090;32;20132;-72
2024/01/05 06:12:24;;;;;;;5.97;3.90;;;;;;;6.26;59.05;99397.34;4445260;32;20601;-72
2024/01/05 06:14:54;;;;;;;6.78;3.72;;;;;;;6.03;59.79;99403.09;4451027;32;20212;-72
2024/01/05 06:17:23;;;;;;;5.62;2.78;;;;;;;6.25;59.16;99398.25;4451174;32;20183;-72
2024/01/05 06:19:52;;;;;;;4.25;3.03;;;;;;;6.05;59.66;99399.44;4451077;32;20148;-72
2024/01/05 06:22:21;;;;;;;6.72;3.50;;;;;;;5.87;60.05;99409.22;4444755;32;20151;-72
2024/01/05 06:24:51;;;;;;;9.95;4.53;;;;;;;6.02;59.52;99414.53;4451005;32;20172;-72
2024/01/05 06:27:19;;;;;;;9.25;5.30;;;;;;;6.21;58.79;99419.56;4451410;32;20159;-72
2024/01/05 06:30:10;;;;;;;6.60;4.18;;;;;;;5.99;59.64;99423.47;4450011;32;20144;-72
2024/01/05 06:32:47;;;;;;;6.43;3.37;;;;;;;5.95;59.85;99416.69;4446505;32;20465;-72
2024/01/05 06:35:17;;;;;;;4.50;3.20;;;;;;;5.77;60.44;99415.09;4451047;32;20160;-72
2024/01/05 06:37:47;;;;;;;10.63;3.45;;;;;;;5.80;60.40;99417.53;4451103;32;20492;-72
2024/01/05 06:40:16;;;;;;;8.68;3.30;;;;;;;5.72;60.67;99430.28;4449058;32;20164;-72
2024/01/05 06:42:46;;;;;;;6.25;3.70;;;;;;;5.80;60.44;99422.81;4443416;32;20184;-72
2024/01/05 06:45:17;;;;;;;8.30;3.78;;;;;;;5.67;60.93;99420.88;4450597;32;20168;-72
2024/01/05 06:47:53;;;;;;;6.15;3.67;;;;;;;5.85;60.43;99415.50;4450898;32;20159;-74
2024/01/05 06:50:24;;;;;;;8.10;4.32;;;;;;;5.90;60.28;99408.22;4447242;32;20195;-72
2024/01/05 06:52:54;;;;;;;6.97;3.78;;;;;;;5.93;60.20;99401.94;4447868;32;20192;-72
2024/01/05 06:55:23;;;;;;;8.48;4.18;;;;;;;6.04;59.86;99400.38;4450970;32;20417;-72
2024/01/05 06:57:52;;;;;;;10.95;4.57;;;;;;;6.29;60.03;99401.56;4450985;32;20414;-72
2024/01/05 07:00:23;;;;;;;8.10;4.75;;;;;;;6.98;58.24;99405.25;4448043;32;20753;-72
2024/01/05 07:02:54;;;;;;;8.98;4.32;;;;;;;7.19;56.90;99397.78;4446939;32;20558;-73
2024/01/05 07:05:24;;;;;;;8.55;3.95;;;;;;;7.24;56.70;99404.44;4444186;32;20442;-72
2024/01/05 07:07:53;;;;;;;8.38;4.15;;;;;;;7.26;56.14;99404.38;4450486;32;20148;-72
2024/01/05 07:10:23;;;;;;;5.57;3.92;;;;;;;7.33;55.68;99400.41;4450503;32;20183;-72
2024/01/05 07:12:52;;;;;;;6.15;3.97;;;;;;;6.99;56.50;99402.53;4449210;32;20156;-72
2024/01/05 07:15:23;;;;;;;7.22;4.20;;;;;;;7.03;56.18;99397.91;4450753;32;20159;-72
2024/01/05 07:17:56;;;;;;;7.12;5.07;;;;;;;6.93;56.55;99405.56;4450281;32;20179;-72
2024/01/05 07:20:29;;;;;;;12.20;6.87;;;;;;;6.81;56.97;99404.53;4450383;32;20164;-72
2024/01/05 07:22:58;;;;;;;8.23;4.70;;;;;;;6.75;57.28;99401.41;4450274;32;20175;-72
2024/01/05 07:25:30;;;;;;;13.27;4.72;;;;;;;6.68;57.40;99395.66;4450275;32;20168;-72
2024/01/05 07:27:59;;;;;;;9.32;4.57;;;;;;;6.58;57.83;99386.66;4450169;32;20172;-72
2024/01/05 07:30:30;;;;;;;9.27;5.25;;;;;;;6.74;57.46;99382.13;4450086;32;20504;-71
2024/01/05 07:33:25;;;;;;;6.57;4.70;;;;;;;6.72;57.61;99376.09;4448733;32;20187;-71
2024/01/05 07:35:55;;;;;;;5.47;4.05;;;;;;;6.62;57.98;99378.47;4450415;32;20160;-72
2024/01/05 07:38:24;;;;;;;7.72;4.10;;;;;;;6.72;57.87;99375.25;4443736;32;20454;-72
2024/01/05 07:40:55;;;;;;;12.02;4.93;;;;;;;6.39;59.00;99376.37;4444177;32;20183;-72
2024/01/05 07:43:25;;;;;;;6.93;4.10;;;;;;;6.58;58.69;99373.50;4450098;32;20174;-72
2024/01/05 07:45:56;;;;;;;11.63;4.18;;;;;;;6.72;58.43;99372.62;4450052;32;20169;-72
2024/01/05 07:48:27;;;;;;;14.73;4.68;;;;;;;6.88;58.48;99370.72;4449988;32;20160;-72
2024/01/05 07:51:03;;;;;;;8.80;5.18;;;;;;;7.25;57.82;99371.06;4450250;32;20183;-72
2024/01/05 07:53:33;;;;;;;10.45;4.72;;;;;;;7.56;57.38;99372.53;4444449;32;20152;-72
2024/01/05 07:56:03;;;;;;;13.20;6.68;;;;;;;7.95;56.47;99365.59;4449755;32;20160;-72
2024/01/05 07:58:32;;;;;;;13.88;5.90;;;;;;;8.62;54.24;99367.13;4449819;32;20159;-72
2024/01/05 08:01:09;;;;;;;11.38;7.05;;;;;;;8.98;53.51;99362.84;4443253;32;20195;-72
2024/01/05 08:03:38;;;;;;;7.55;4.62;;;;;;;9.40;52.12;99360.72;4449660;32;20136;-72
2024/01/05 08:06:08;;;;;;;13.40;7.25;;;;;;;10.01;50.47;99361.44;4450063;32;20619;-72
2024/01/05 08:08:37;;;;;;;19.90;8.13;;;;;;;10.40;49.29;99356.75;4449840;32;20179;-72
2024/01/05 08:11:10;;;;;;;9.65;6.18;;;;;;;10.72;48.38;99362.19;4443328;32;20202;-72
2024/01/05 08:13:41;;;;;;;13.00;8.07;;;;;;;11.09;47.85;99361.94;4451886;32;20457;-72
2024/01/05 08:16:11;;;;;;;13.25;7.18;;;;;;;11.96;46.03;99360.16;4451908;32;20523;-72
2024/01/05 08:18:41;;;;;;;7.45;5.47;;;;;;;12.92;43.65;99369.63;4451976;32;20183;-72
2024/01/05 08:21:11;;;;;;;7.95;4.80;;;;;;;13.83;41.47;99365.09;4445838;32;20156;-72
2024/01/05 08:23:40;;;;;;;12.35;5.68;;;;;;;14.56;39.36;99370.75;4451957;32;20156;-73
2024/01/05 08:26:09;;;;;;;10.00;5.62;;;;;;;15.52;38.38;99359.78;4451952;32;20160;-72
2024/01/05 08:28:39;;;;;;;8.93;5.30;;;;;;;15.30;47.49;99377.06;4451810;32;20460;-72
2024/01/05 08:31:08;;;;;;;14.93;5.78;;;;;;;15.59;44.78;99368.87;4445506;32;20176;-72
2024/01/05 08:33:38;;;;;;;10.93;6.32;;;;;;;16.33;41.26;99373.91;4451882;32;20172;-72
2024/01/05 08:36:08;;;;;;;9.90;5.68;;;;;;;17.51;34.40;99368.84;4452200;32;20148;-72
2024/01/05 08:38:38;;;;;;;10.18;6.43;;;;;;;18.21;33.59;99355.84;4452011;32;20148;-72
2024/01/05 08:41:07;;;;;;;10.25;7.95;;;;;;;18.83;32.29;99348.06;4445352;32;20175;-72
2024/01/05 08:43:38;;;;;;;10.02;7.00;;;;;;;19.46;31.50;99370.47;4450382;32;20180;-73
2024/01/05 08:46:08;;;;;;;8.70;4.70;;;;;;;19.81;30.31;99366.41;4451724;32;20152;-73
2024/01/05 08:48:39;;;;;;;7.62;4.90;;;;;;;20.27;29.71;99363.72;4451693;32;20165;-72
2024/01/05 08:51:08;;;;;;;6.93;4.82;;;;;;;20.48;28.97;99364.88;4445412;32;20163;-72
2024/01/05 08:53:37;;;;;;;10.15;5.07;;;;;;;20.62;28.48;99364.91;4451837;32;20203;-73
2024/01/05 08:56:08;;;;;;;9.50;5.15;;;;;;;20.86;28.33;99354.88;4451691;32;20461;-72
2024/01/05 08:58:37;;;;;;;11.77;5.07;;;;;;;21.16;27.95;99349.50;4451601;32;20180;-73
2024/01/05 09:01:06;;;;;;;9.48;5.20;;;;;;;21.17;27.59;99360.06;4441333;32;118918;-73
2024/01/05 09:03:40;;;;;;;16.42;7.37;;;;;;;21.12;27.99;99365.19;4451671;32;20136;-72
2024/01/05 09:06:10;;;;;;;12.40;7.50;;;;;;;21.19;27.41;99368.00;4452128;32;20540;-73
2024/01/05 09:08:39;;;;;;;19.58;11.27;;;;;;;21.12;27.32;99373.28;4451565;32;20171;-73
2024/01/05 09:11:08;;;;;;;18.87;10.45;;;;;;;20.98;27.33;99377.63;4445329;32;20168;-73
2024/01/05 09:13:37;;;;;;;7.78;4.65;;;;;;;21.08;27.52;99370.13;4451687;32;20143;-73
2024/01/05 09:16:09;;;;;;;8.07;5.60;;;;;;;19.20;28.55;99373.44;4451487;32;20155;-72
2024/01/05 09:18:43;;;;;;;15.43;11.15;;;;;;;17.70;30.45;99373.91;4451503;32;20160;-72
2024/01/05 09:21:13;;;;;;;11.35;7.85;;;;;;;16.64;33.18;99386.81;4445490;32;20164;-72
2024/01/05 09:23:43;;;;;;;8.40;4.62;;;;;;;16.59;32.59;99381.97;4451497;32;20168;-73
2024/01/05 09:26:14;;;;;;;11.45;5.05;;;;;;;16.61;33.59;99387.97;4451518;32;20451;-72
2024/01/05 09:28:47;;;;;;;10.48;4.05;;;;;;;15.54;34.56;99405.87;4451449;32;20196;-72
2024/01/05 09:31:15;;;;;;;6.28;3.92;;;;;;;14.24;36.99;99406.56;4445089;32;20172;-72
2024/01/05 09:33:49;;;;;;;6.93;4.40;;;;;;;14.51;36.58;99408.53;4451380;32;20156;-72
2024/01/05 09:36:19;;;;;;;8.52;5.45;;;;;;;15.02;35.88;99400.25;4451843;32;20148;-72
2024/01/05 09:39:09;;;;;;;7.78;4.50;;;;;;;15.87;34.64;99397.22;4449926;32;20168;-72
2024/01/05 09:41:58;;;;;;;9.30;6.65;;;;;;;16.22;34.11;99391.03;4449782;32;20200;-72
2024/01/05 09:44:51;;;;;;;17.77;12.27;;;;;;;16.69;33.69;99382.66;4449962;32;20186;-72
2024/01/05 09:47:44;;;;;;;8.65;4.18;;;;;;;17.61;32.21;99356.97;4449792;32;20539;-72
2024/01/05 09:50:34;;;;;;;17.40;9.82;;;;;;;17.31;31.47;99358.41;4433341;32;20540;-72
2024/01/05 09:53:24;;;;;;;11.25;7.32;;;;;;;18.20;31.18;99340.78;4449812;32;20179;-72
2024/01/05 09:56:14;;;;;;;7.05;4.47;;;;;;;17.95;31.43;99345.31;4448486;32;20164;-72
2024/01/05 09:59:06;;;;;;;12.93;8.40;;;;;;;17.99;30.98;99335.94;4449763;32;20160;-72
2024/01/05 10:01:56;;;;;;;10.77;6.07;;;;;;;18.39;30.64;99329.69;4443473;32;20164;-72
2024/01/05 10:04:45;;;;;;;11.98;5.78;;;;;;;18.99;30.20;99319.50;4447264;32;20182;-72
2024/01/05 10:07:43;;;;;;;9.35;5.32;;;;;;;18.84;30.30;99317.53;4441884;32;20179;-73
2024/01/05 10:10:48;;;;;;;7.12;4.78;;;;;;;18.37;30.84;99320.13;4446041;32;20799;-72
2024/01/05 10:13:37;;;;;;;11.48;7.15;;;;;;;18.85;30.35;99304.97;4445268;32;20167;-73
2024/01/05 10:16:36;;;;;;;13.65;4.90;;;;;;;18.52;30.78;99313.06;4449392;32;20180;-72
2024/01/05 10:19:26;;;;;;;11.63;8.40;;;;;;;18.16;30.49;99310.78;4449644;32;20164;-72
2024/01/05 10:22:16;;;;;;;10.32;7.53;;;;;;;17.60;32.15;99304.41;4448893;32;20180;-72
2024/01/05 10:25:17;;;;;;;7.53;4.70;;;;;;;17.73;31.88;99295.03;4449761;32;20164;-72
2024/01/05 10:28:23;;;;;;;9.05;6.32;;;;;;;16.91;32.86;99297.53;4449634;32;20159;-72
2024/01/05 10:31:14;;;;;;;11.00;8.05;;;;;;;17.34;32.81;99288.47;4441735;32;20152;-72
2024/01/05 10:34:03;;;;;;;9.38;6.82;;;;;;;17.35;32.21;99284.78;4444738;32;20169;-72
2024/01/05 10:37:03;;;;;;;10.38;5.57;;;;;;;17.19;32.61;99284.75;4449485;32;20167;-72
2024/01/05 10:39:53;;;;;;;10.40;8.50;;;;;;;15.48;34.78;99288.00;4449532;32;20132;-72
2024/01/05 10:42:44;;;;;;;19.10;13.50;;;;;;;15.60;35.30;99277.06;4444883;32;20187;-72
2024/01/05 10:45:35;;;;;;;7.53;5.03;;;;;;;15.89;34.73;99269.69;4449616;32;20430;-72
2024/01/05 10:48:26;;;;;;;11.77;7.03;;;;;;;16.20;34.56;99264.72;4449299;32;20231;-71
2024/01/05 10:51:16;;;;;;;10.43;5.60;;;;;;;16.98;33.53;99244.19;4449673;32;20164;-72
2024/01/05 10:54:07;;;;;;;9.45;5.20;;;;;;;17.35;32.59;99239.25;4449079;32;20560;-72
2024/01/05 10:56:57;;;;;;;10.55;7.15;;;;;;;17.04;33.14;99244.38;4449310;32;20157;-72
2024/01/05 10:59:50;;;;;;;9.00;6.18;;;;;;;16.45;33.79;99244.31;4449481;32;20179;-72
2024/01/05 11:02:40;;;;;;;9.25;6.10;;;;;;;15.46;35.81;99249.94;4441930;32;20148;-72
2024/01/05 11:05:31;;;;;;;8.65;5.47;;;;;;;15.35;36.34;99250.16;4446751;32;20176;-72
2024/01/05 11:08:35;;;;;;;11.10;6.22;;;;;;;15.39;36.03;99242.69;4448930;32;20473;-72
2024/01/05 11:11:36;;;;;;;10.73;5.78;;;;;;;15.39;36.42;99232.84;4449360;32;20176;-72
2024/01/05 11:14:48;;;;;;;8.10;5.10;;;;;;;15.38;36.22;99231.19;4448961;32;20744;-72
2024/01/05 11:18:05;;;;;;;12.00;6.45;;;;;;;13.71;38.57;99241.91;4449154;32;20175;-72
2024/01/05 11:21:11;;;;;;;8.82;4.57;;;;;;;13.29;40.03;99233.38;4442425;32;20536;-72
2024/01/05 11:24:02;;;;;;;7.28;4.35;;;;;;;12.93;41.30;99226.88;4433144;32;20219;-72
2024/01/05 11:26:54;;;;;;;8.82;4.85;;;;;;;12.68;41.89;99225.59;4446129;32;20168;-72
2024/01/05 11:29:51;;;;;;;6.55;4.10;;;;;;;12.80;42.14;99217.34;4433591;32;20167;-72
2024/01/05 11:32:44;;;;;;;12.63;5.57;;;;;;;11.87;44.72;99225.50;4444391;32;20159;-72
2024/01/05 11:35:53;;;;;;;11.23;6.68;;;;;;;12.36;44.37;99218.63;4446160;32;20148;-72
2024/01/05 11:38:44;;;;;;;9.93;5.60;;;;;;;11.85;45.49;99219.50;4448677;32;20172;-72
2024/01/05 11:41:33;;;;;;;12.98;6.20;;;;;;;11.57;46.02;99218.31;4442360;32;20523;-72
2024/01/05 11:44:36;;;;;;;11.77;7.40;;;;;;;11.29;47.01;99223.28;4448582;32;20176;-72
2024/01/05 11:47:45;;;;;;;9.15;6.60;;;;;;;11.05;48.04;99215.53;4447256;32;20196;-72
2024/01/05 11:50:37;;;;;;;9.38;5.40;;;;;;;11.10;47.92;99214.31;4445501;32;20151;-72
2024/01/05 11:53:29;;;;;;;11.45;6.30;;;;;;;10.82;48.83;99204.16;4450718;32;20168;-72
2024/01/05 11:56:21;;;;;;;9.02;6.80;;;;;;;10.94;49.10;99210.28;4450697;32;20179;-72
2024/01/05 11:59:14;;;;;;;9.52;6.37;;;;;;;10.69;49.81;99210.56;4450754;32;20160;-72
2024/01/05 12:02:03;;;;;;;11.25;6.87;;;;;;;11.03;49.13;99212.16;4444092;32;20163;-72
2024/01/05 12:04:53;;;;;;;12.40;9.00;;;;;;;10.79;49.81;99216.81;4450589;32;20187;-72
2024/01/05 12:07:42;;;;;;;100.68;48.92;;;;;;;10.70;50.36;99229.00;4447985;32;20180;-72
2024/01/05 12:10:33;;;;;;;21.92;11.45;;;;;;;10.97;50.17;99220.62;4428563;32;20184;-72
2024/01/05 12:13:24;;;;;;;16.70;11.27;;;;;;;11.18;50.11;99225.13;4450251;32;20642;-72
2024/01/05 12:16:14;;;;;;;19.00;13.40;;;;;;;11.16;50.08;99232.34;4450426;32;20160;-72